createdAt,value
2024-05-09T00:00:47.906Z,9.40
2024-05-09T00:03:35.882Z,9.30
2024-05-09T00:06:04.544Z,9.50
2024-05-09T00:08:32.695Z,10.50
2024-05-09T00:11:00.839Z,8.70
2024-05-09T00:13:28.945Z,9.20
2024-05-09T00:15:57.028Z,8.50
2024-05-09T00:18:25.121Z,10.10
2024-05-09T00:20:53.255Z,10.70
2024-05-09T00:23:21.227Z,10.10
2024-05-09T00:25:49.262Z,9.70
2024-05-09T00:28:17.269Z,10.00
2024-05-09T00:30:45.204Z,10.10
2024-05-09T00:33:13.318Z,8.90
2024-05-09T00:35:41.782Z,9.40
2024-05-09T00:38:10.619Z,9.70
2024-05-09T00:40:42.001Z,9.30
2024-05-09T00:43:13.923Z,10.80
2024-05-09T00:45:43.784Z,9.20
2024-05-09T00:48:17.306Z,8.80
2024-05-09T00:50:48.151Z,9.20
2024-05-09T00:53:18.520Z,9.00
2024-05-09T00:55:47.634Z,9.00
2024-05-09T00:58:20.957Z,7.90
2024-05-09T01:00:50.385Z,8.30
2024-05-09T01:03:19.492Z,7.70
2024-05-09T01:05:48.035Z,7.90
2024-05-09T01:08:16.316Z,7.90
2024-05-09T01:10:46.107Z,8.90
2024-05-09T01:13:16.035Z,10.10
2024-05-09T01:15:44.406Z,9.10
2024-05-09T01:18:13.804Z,9.70
2024-05-09T01:20:44.520Z,10.00
2024-05-09T01:23:16.379Z,8.60
2024-05-09T01:25:46.120Z,9.90
2024-05-09T01:28:16.101Z,8.60
2024-05-09T01:30:44.338Z,9.30
2024-05-09T01:33:13.029Z,8.50
2024-05-09T01:35:42.767Z,8.40
2024-05-09T01:38:13.218Z,8.30
2024-05-09T01:40:41.571Z,8.60
2024-05-09T01:43:10.863Z,8.70
2024-05-09T01:45:41.180Z,8.90
2024-05-09T01:48:10.984Z,8.30
2024-05-09T01:50:42.233Z,8.10
2024-05-09T01:53:13.390Z,7.70
2024-05-09T01:55:42.195Z,7.70
2024-05-09T01:58:10.365Z,7.70
2024-05-09T02:00:42.143Z,7.80
2024-05-09T02:03:16.031Z,8.20
2024-05-09T02:05:49.577Z,9.30
2024-05-09T02:08:22.133Z,9.10
2024-05-09T02:10:50.895Z,9.50
2024-05-09T02:13:19.252Z,8.90
2024-05-09T02:15:47.316Z,8.80
2024-05-09T02:18:15.540Z,9.20
2024-05-09T02:20:44.240Z,8.50
2024-05-09T02:23:13.690Z,8.00
2024-05-09T02:25:42.056Z,7.50
2024-05-09T02:28:10.025Z,7.60
2024-05-09T02:30:41.087Z,8.20
2024-05-09T02:33:12.466Z,8.90
2024-05-09T02:35:44.008Z,8.60
2024-05-09T02:38:13.517Z,8.20
2024-05-09T02:40:41.891Z,8.00
2024-05-09T02:43:12.682Z,8.80
2024-05-09T02:45:41.727Z,8.80
2024-05-09T02:48:10.936Z,8.30
2024-05-09T02:50:44.045Z,8.00
2024-05-09T02:53:13.300Z,8.40
2024-05-09T02:55:42.299Z,8.60
2024-05-09T02:58:12.106Z,8.20
2024-05-09T03:00:42.327Z,9.10
2024-05-09T03:03:14.106Z,8.00
2024-05-09T03:05:46.507Z,8.70
2024-05-09T03:08:14.974Z,7.50
2024-05-09T03:10:43.216Z,8.20
2024-05-09T03:13:14.911Z,7.60
2024-05-09T03:15:44.924Z,8.00
2024-05-09T03:18:15.056Z,7.70
2024-05-09T03:20:44.559Z,7.90
2024-05-09T03:23:12.896Z,9.00
2024-05-09T03:25:41.113Z,8.50
2024-05-09T03:28:09.116Z,9.00
2024-05-09T03:30:41.850Z,8.60
2024-05-09T03:33:15.189Z,8.80
2024-05-09T03:35:44.216Z,9.90
2024-05-09T03:38:12.570Z,8.90
2024-05-09T03:40:49.054Z,8.90
2024-05-09T03:43:19.507Z,7.80
2024-05-09T03:45:50.409Z,9.00
2024-05-09T03:48:18.724Z,8.50
2024-05-09T03:50:48.145Z,7.90
2024-05-09T03:53:16.408Z,8.50
2024-05-09T03:55:48.332Z,9.00
2024-05-09T03:58:16.300Z,8.20
2024-05-09T04:00:44.318Z,8.40
2024-05-09T04:03:13.441Z,8.50
2024-05-09T04:05:44.574Z,8.40
2024-05-09T04:08:14.868Z,7.80
2024-05-09T04:10:43.491Z,9.40
2024-05-09T04:13:11.493Z,9.00
2024-05-09T04:15:39.854Z,9.50
2024-05-09T04:18:08.037Z,10.20
2024-05-09T04:20:39.582Z,9.30
2024-05-09T04:23:14.572Z,10.20
2024-05-09T04:25:44.742Z,9.70
2024-05-09T04:28:13.963Z,10.60
2024-05-09T04:30:42.694Z,10.40
2024-05-09T04:33:13.455Z,11.20
2024-05-09T04:35:43.786Z,11.40
2024-05-09T04:38:13.779Z,11.40
2024-05-09T04:40:42.697Z,10.70
2024-05-09T04:43:16.019Z,11.80
2024-05-09T04:45:44.536Z,11.70
2024-05-09T04:48:12.936Z,10.60
2024-05-09T04:50:41.594Z,11.10
2024-05-09T04:53:10.903Z,10.60
2024-05-09T04:55:40.418Z,10.30
2024-05-09T04:58:09.504Z,9.40
2024-05-09T05:00:41.436Z,9.40
2024-05-09T05:03:13.910Z,8.60
2024-05-09T05:05:46.528Z,7.80
2024-05-09T05:08:16.897Z,8.20
2024-05-09T05:10:46.970Z,7.70
2024-05-09T05:13:17.617Z,7.10
2024-05-09T05:15:47.530Z,6.50
2024-05-09T05:18:16.251Z,6.20
2024-05-09T05:20:45.061Z,6.30
2024-05-09T05:23:15.716Z,6.70
2024-05-09T05:25:44.824Z,7.00
2024-05-09T05:28:13.511Z,7.40
2024-05-09T05:30:41.987Z,8.00
2024-05-09T05:33:13.299Z,7.50
2024-05-09T05:35:42.291Z,6.80
2024-05-09T05:38:10.966Z,8.20
2024-05-09T05:40:40.525Z,7.10
2024-05-09T05:43:17.436Z,7.00
2024-05-09T05:45:46.789Z,7.10
2024-05-09T05:48:18.195Z,6.60
2024-05-09T05:50:46.837Z,6.70
2024-05-09T05:53:16.377Z,7.40
2024-05-09T05:55:44.688Z,7.00
2024-05-09T05:58:14.324Z,6.10
2024-05-09T06:00:43.134Z,5.80
2024-05-09T06:03:12.678Z,6.60
2024-05-09T06:05:45.892Z,5.50
2024-05-09T06:08:14.511Z,6.20
2024-05-09T06:10:42.989Z,6.10
2024-05-09T06:13:12.790Z,5.90
2024-05-09T06:15:41.596Z,5.90
2024-05-09T06:18:13.148Z,5.90
2024-05-09T06:20:43.733Z,6.30
2024-05-09T06:23:14.280Z,5.70
2024-05-09T06:25:44.052Z,5.80
2024-05-09T06:28:12.842Z,4.90
2024-05-09T06:30:42.678Z,5.80
2024-05-09T06:33:13.837Z,5.80
2024-05-09T06:35:44.660Z,5.90
2024-05-09T06:38:13.256Z,5.60
2024-05-09T06:40:43.834Z,5.40
2024-05-09T06:43:15.019Z,5.40
2024-05-09T06:45:46.089Z,5.90
2024-05-09T06:48:14.628Z,5.30
2024-05-09T06:50:43.000Z,5.30
2024-05-09T06:53:14.353Z,5.20
2024-05-09T06:55:43.014Z,5.60
2024-05-09T06:58:11.015Z,5.30
2024-05-09T07:00:41.141Z,6.00
2024-05-09T07:03:13.179Z,4.90
2024-05-09T07:05:44.422Z,5.60
2024-05-09T07:08:14.621Z,6.00
2024-05-09T07:10:42.877Z,5.40
2024-05-09T07:13:13.078Z,4.70
2024-05-09T07:15:42.071Z,5.00
2024-05-09T07:18:17.688Z,5.30
2024-05-09T07:20:48.841Z,6.00
2024-05-09T07:23:18.331Z,5.40
2024-05-09T07:25:46.881Z,5.20
2024-05-09T07:28:16.850Z,4.90
2024-05-09T07:30:45.791Z,5.30
2024-05-09T07:33:17.472Z,5.60
2024-05-09T07:35:46.013Z,5.40
2024-05-09T07:38:14.142Z,6.40
2024-05-09T07:40:42.988Z,5.60
2024-05-09T07:43:14.773Z,5.00
2024-05-09T07:45:51.399Z,6.00
2024-05-09T07:52:45.962Z,5.50
2024-05-09T07:53:50.008Z,5.60
2024-05-09T07:56:22.770Z,5.00
2024-05-09T07:58:54.197Z,4.40
2024-05-09T08:01:25.480Z,5.20
2024-05-09T08:03:54.541Z,4.20
2024-05-09T08:06:52.153Z,5.40
2024-05-09T08:09:21.417Z,4.90
2024-05-09T08:11:52.596Z,4.60
2024-05-09T08:14:20.712Z,4.70
2024-05-09T08:16:50.859Z,5.20
2024-05-09T08:19:18.906Z,4.80
2024-05-09T08:21:47.246Z,4.60
2024-05-09T08:24:15.228Z,4.10
2024-05-09T08:26:43.139Z,4.40
2024-05-09T08:29:11.187Z,4.40
2024-05-09T08:31:39.408Z,4.30
2024-05-09T08:34:07.456Z,4.20
2024-05-09T08:36:35.577Z,4.10
2024-05-09T08:39:03.675Z,4.20
2024-05-09T08:41:34.104Z,3.60
2024-05-09T08:44:03.197Z,3.80
2024-05-09T08:46:33.515Z,4.50
2024-05-09T08:49:03.346Z,3.60
2024-05-09T08:51:31.957Z,3.90
2024-05-09T08:53:59.892Z,4.00
2024-05-09T08:56:28.278Z,3.80
2024-05-09T08:59:00.898Z,4.10
2024-05-09T09:01:31.800Z,4.10
2024-05-09T09:04:05.245Z,3.70
2024-05-09T09:06:35.550Z,4.40
2024-05-09T09:09:03.715Z,4.10
2024-05-09T09:11:31.610Z,3.90
2024-05-09T09:13:59.612Z,3.60
2024-05-09T09:16:37.139Z,3.60
2024-05-09T09:19:05.352Z,4.00
2024-05-09T09:21:33.791Z,3.70
2024-05-09T09:24:01.844Z,3.50
2024-05-09T09:26:32.493Z,3.30
2024-05-09T09:29:04.089Z,3.20
2024-05-09T09:31:32.210Z,3.60
2024-05-09T09:34:08.198Z,3.90
2024-05-09T09:36:39.180Z,3.30
2024-05-09T09:39:12.604Z,3.00
2024-05-09T09:41:46.916Z,3.20
2024-05-09T09:44:16.976Z,3.40
2024-05-09T09:46:46.094Z,3.10
2024-05-09T09:49:19.318Z,3.70
2024-05-09T09:51:49.421Z,3.30
2024-05-09T09:54:21.727Z,2.90
2024-05-09T09:56:51.550Z,3.50
2024-05-09T09:59:22.993Z,3.30
2024-05-09T10:01:51.386Z,3.20
2024-05-09T10:04:19.768Z,3.40
2024-05-09T10:06:55.003Z,3.10
2024-05-09T10:09:28.991Z,3.70
2024-05-09T10:12:00.363Z,2.80
2024-05-09T10:14:40.507Z,3.30
2024-05-09T10:17:08.571Z,3.30
2024-05-09T10:19:36.685Z,3.90
2024-05-09T10:22:10.933Z,3.20
2024-05-09T10:25:06.630Z,3.30
2024-05-09T10:27:34.739Z,3.30
2024-05-09T10:30:09.093Z,3.30
2024-05-09T10:32:44.875Z,3.30
2024-05-09T10:35:15.120Z,3.40
2024-05-09T10:37:43.602Z,3.00
2024-05-09T10:40:23.361Z,3.40
2024-05-09T10:43:05.778Z,3.30
2024-05-09T10:45:35.667Z,3.00
2024-05-09T10:48:07.822Z,3.00
2024-05-09T10:50:39.077Z,3.40
2024-05-09T10:53:07.202Z,3.20
2024-05-09T10:56:03.207Z,3.20
2024-05-09T11:01:00.638Z,3.00
2024-05-09T11:03:30.289Z,3.30
2024-05-09T11:05:58.874Z,2.90
2024-05-09T11:08:27.638Z,2.60
2024-05-09T11:10:59.618Z,3.20
2024-05-09T11:13:34.157Z,3.60
2024-05-09T11:16:03.459Z,3.00
2024-05-09T11:18:36.473Z,3.20
2024-05-09T11:21:13.601Z,3.20
2024-05-09T11:23:42.124Z,3.40
2024-05-09T11:26:11.225Z,3.40
2024-05-09T11:28:44.196Z,3.40
2024-05-09T11:31:12.538Z,3.10
2024-05-09T11:33:45.508Z,3.30
2024-05-09T11:36:14.960Z,3.00
2024-05-09T11:38:43.195Z,3.50
2024-05-09T11:41:18.434Z,3.50
2024-05-09T11:43:46.774Z,2.80
2024-05-09T11:46:14.907Z,2.90
2024-05-09T11:48:43.182Z,3.00
2024-05-09T11:51:11.311Z,3.10
2024-05-09T11:53:39.372Z,2.80
2024-05-09T11:56:07.459Z,3.40
2024-05-09T11:58:38.120Z,3.00
2024-05-09T12:01:06.125Z,2.90
2024-05-09T12:03:35.166Z,3.20
2024-05-09T12:06:04.091Z,2.90
2024-05-09T12:08:32.312Z,3.40
2024-05-09T12:11:00.483Z,2.90
2024-05-09T12:13:29.127Z,3.10
2024-05-09T12:15:57.106Z,2.50
2024-05-09T12:18:25.282Z,2.80
2024-05-09T12:20:53.376Z,3.50
2024-05-09T12:23:21.366Z,3.60
2024-05-09T12:25:49.815Z,3.00
2024-05-09T12:28:18.262Z,3.40
2024-05-09T12:30:46.701Z,3.00
2024-05-09T12:33:14.875Z,2.80
2024-05-09T12:35:45.394Z,3.10
2024-05-09T12:38:15.558Z,2.90
2024-05-09T12:40:43.763Z,3.00
2024-05-09T12:43:12.233Z,3.40
2024-05-09T12:45:40.444Z,3.00
2024-05-09T12:48:12.129Z,3.40
2024-05-09T12:50:41.786Z,2.70
2024-05-09T12:53:10.189Z,3.10
2024-05-09T12:55:44.910Z,2.80
2024-05-09T12:58:22.104Z,3.30
2024-05-09T13:00:53.495Z,2.90
2024-05-09T13:03:22.278Z,3.00
2024-05-09T13:05:51.498Z,3.40
2024-05-09T13:08:20.850Z,3.20
2024-05-09T13:10:49.976Z,3.00
2024-05-09T13:13:18.170Z,2.90
2024-05-09T13:15:46.335Z,2.90
2024-05-09T13:18:14.416Z,2.90
2024-05-09T13:20:42.355Z,3.00
2024-05-09T13:23:10.275Z,3.00
2024-05-09T13:25:38.435Z,3.00
2024-05-09T13:28:07.662Z,2.90
2024-05-09T13:30:40.205Z,2.90
2024-05-09T13:33:12.155Z,2.90
2024-05-09T13:35:46.878Z,3.10
2024-05-09T13:38:19.347Z,2.50
2024-05-09T13:40:48.317Z,3.00
2024-05-09T13:43:17.471Z,2.60
2024-05-09T13:45:45.947Z,3.00
2024-05-09T13:48:14.267Z,2.60
2024-05-09T13:50:42.399Z,2.70
2024-05-09T13:53:10.379Z,2.60
2024-05-09T13:55:38.897Z,2.90
2024-05-09T13:58:07.743Z,2.60
2024-05-09T14:00:49.971Z,2.60
2024-05-09T14:03:30.398Z,2.80
2024-05-09T14:06:01.904Z,3.00
2024-05-09T14:08:32.059Z,2.80
2024-05-09T14:11:00.081Z,2.80
2024-05-09T14:13:28.289Z,2.60
2024-05-09T14:15:56.525Z,2.80
2024-05-09T14:18:25.915Z,2.30
2024-05-09T14:20:54.435Z,2.70
2024-05-09T14:23:22.600Z,2.60
2024-05-09T14:25:53.023Z,2.50
2024-05-09T14:28:24.670Z,2.90
2024-05-09T14:30:53.238Z,2.30
2024-05-09T14:33:26.177Z,2.70
2024-05-09T14:35:54.523Z,2.90
2024-05-09T14:38:27.334Z,2.50
2024-05-09T14:40:55.929Z,2.30
2024-05-09T14:43:24.391Z,2.50
2024-05-09T14:45:53.378Z,2.60
2024-05-09T14:48:21.856Z,2.30
2024-05-09T14:50:50.062Z,2.20
2024-05-09T14:53:17.910Z,2.70
2024-05-09T14:55:46.256Z,2.40
2024-05-09T14:58:15.249Z,2.50
2024-05-09T15:00:50.190Z,2.70
2024-05-09T15:03:21.015Z,2.70
2024-05-09T15:05:51.215Z,2.50
2024-05-09T15:08:22.772Z,2.20
2024-05-09T15:10:51.027Z,2.40
2024-05-09T15:13:20.814Z,2.40
2024-05-09T15:15:49.496Z,2.80
2024-05-09T15:18:18.140Z,2.30
2024-05-09T15:20:47.058Z,2.80
2024-05-09T15:23:15.264Z,3.00
2024-05-09T15:25:45.827Z,2.70
2024-05-09T15:28:13.870Z,2.40
2024-05-09T15:30:45.520Z,2.60
2024-05-09T15:33:15.181Z,2.60
2024-05-09T15:35:44.796Z,3.20
2024-05-09T15:38:14.121Z,3.00
2024-05-09T15:40:42.070Z,2.80
2024-05-09T15:43:11.459Z,2.50
2024-05-09T15:45:41.653Z,2.90
2024-05-09T15:48:10.971Z,2.60
2024-05-09T15:50:41.818Z,3.10
2024-05-09T15:53:13.214Z,2.90
2024-05-09T15:55:42.839Z,3.00
2024-05-09T15:58:13.282Z,2.50
2024-05-09T16:00:44.208Z,2.60
2024-05-09T16:03:14.876Z,2.50
2024-05-09T16:05:45.706Z,2.50
2024-05-09T16:08:15.603Z,3.40
2024-05-09T16:10:45.880Z,3.10
2024-05-09T16:13:16.491Z,2.90
2024-05-09T16:15:45.693Z,4.00
2024-05-09T16:18:14.041Z,3.00
2024-05-09T16:20:43.973Z,3.10
2024-05-09T16:23:13.614Z,2.80
2024-05-09T16:25:45.336Z,3.00
2024-05-09T16:28:13.772Z,3.40
2024-05-09T16:30:42.103Z,3.10
2024-05-09T16:33:11.671Z,3.50
2024-05-09T16:35:40.400Z,3.50
2024-05-09T16:38:08.664Z,3.00
2024-05-09T16:40:40.132Z,3.10
2024-05-09T16:43:12.328Z,3.60
2024-05-09T16:45:45.125Z,3.60
2024-05-09T16:48:14.032Z,3.60
2024-05-09T16:50:42.923Z,3.00
2024-05-09T16:53:11.029Z,3.40
2024-05-09T16:55:39.128Z,4.00
2024-05-09T16:58:12.077Z,4.80
2024-05-09T17:00:43.247Z,4.30
2024-05-09T17:03:14.865Z,3.50
2024-05-09T17:05:46.585Z,3.20
2024-05-09T17:08:18.277Z,3.50
2024-05-09T17:10:48.962Z,2.80
2024-05-09T17:13:19.194Z,3.30
2024-05-09T17:15:49.357Z,3.40
2024-05-09T17:18:17.791Z,3.30
2024-05-09T17:20:46.660Z,3.90
2024-05-09T17:23:14.900Z,4.30
2024-05-09T17:25:43.168Z,3.40
2024-05-09T17:28:12.143Z,3.70
2024-05-09T17:30:42.002Z,3.90
2024-05-09T17:33:12.469Z,3.60
2024-05-09T17:35:41.753Z,3.50
2024-05-09T17:38:09.821Z,4.10
2024-05-09T17:40:38.997Z,3.70
2024-05-09T17:43:10.374Z,3.70
2024-05-09T17:45:40.897Z,4.10
2024-05-09T17:48:11.670Z,4.10
2024-05-09T17:50:41.938Z,4.60
2024-05-09T17:53:10.988Z,4.20
2024-05-09T17:55:40.237Z,4.60
2024-05-09T17:58:09.537Z,4.60
2024-05-09T18:00:40.758Z,4.10
2024-05-09T18:03:12.308Z,4.30
2024-05-09T18:05:44.121Z,4.30
2024-05-09T18:08:13.268Z,4.70
2024-05-09T18:10:42.150Z,4.00
2024-05-09T18:13:12.427Z,4.50
2024-05-09T18:15:41.266Z,4.80
2024-05-09T18:18:12.612Z,3.80
2024-05-09T18:20:44.782Z,4.40
2024-05-09T18:23:17.837Z,4.20
2024-05-09T18:25:48.080Z,5.20
2024-05-09T18:28:17.222Z,5.10
2024-05-09T18:30:45.935Z,5.00
2024-05-09T18:33:20.558Z,5.70
2024-05-09T18:35:48.656Z,5.20
2024-05-09T18:38:18.337Z,5.60
2024-05-09T18:40:48.951Z,6.00
2024-05-09T18:43:18.788Z,6.90
2024-05-09T18:45:48.526Z,7.60
2024-05-09T18:48:16.657Z,7.50
2024-05-09T18:50:45.092Z,7.40
2024-05-09T18:53:13.978Z,7.30
2024-05-09T18:55:42.467Z,7.20
2024-05-09T18:58:10.677Z,7.30
2024-05-09T19:00:41.383Z,8.00
2024-05-09T19:03:13.839Z,7.40
2024-05-09T19:05:44.646Z,7.40
2024-05-09T19:08:15.031Z,6.80
2024-05-09T19:10:45.532Z,7.40
2024-05-09T19:13:14.626Z,7.00
2024-05-09T19:15:43.791Z,6.70
2024-05-09T19:18:13.815Z,6.60
2024-05-09T19:20:45.824Z,6.40
2024-05-09T19:23:13.817Z,6.40
2024-05-09T19:25:41.854Z,6.80
2024-05-09T19:28:09.982Z,6.90
2024-05-09T19:30:41.385Z,6.90
2024-05-09T19:33:12.958Z,6.70
2024-05-09T19:35:43.609Z,8.00
2024-05-09T19:38:12.758Z,7.20
2024-05-09T19:40:41.065Z,7.10
2024-05-09T19:43:09.566Z,6.70
2024-05-09T19:45:38.187Z,6.40
2024-05-09T19:48:06.951Z,6.90
2024-05-09T19:50:42.047Z,6.60
2024-05-09T19:53:14.371Z,6.40
2024-05-09T19:55:43.230Z,6.80
2024-05-09T19:58:12.243Z,7.00
2024-05-09T20:00:43.163Z,6.90
2024-05-09T20:03:14.288Z,7.50
2024-05-09T20:05:45.841Z,6.90
2024-05-09T20:08:14.703Z,6.70
2024-05-09T20:10:42.927Z,7.00
2024-05-09T20:13:11.281Z,7.80
2024-05-09T20:15:39.708Z,8.00
2024-05-09T20:18:08.081Z,9.10
2024-05-09T20:20:40.372Z,8.50
2024-05-09T20:23:12.139Z,8.90
2024-05-09T20:25:41.633Z,9.00
2024-05-09T20:28:10.252Z,8.80
2024-05-09T20:30:38.984Z,8.60
2024-05-09T20:33:08.655Z,9.60
2024-05-09T20:35:38.032Z,8.70
2024-05-09T20:38:06.204Z,8.70
2024-05-09T20:40:37.593Z,8.60
2024-05-09T20:43:09.478Z,7.60
2024-05-09T20:45:38.495Z,8.60
2024-05-09T20:48:07.960Z,8.70
2024-05-09T20:50:40.447Z,8.00
2024-05-09T20:53:13.734Z,8.70
2024-05-09T20:55:44.884Z,7.80
2024-05-09T20:58:13.794Z,8.20
2024-05-09T21:00:46.336Z,7.70
2024-05-09T21:03:16.949Z,7.70
2024-05-09T21:05:47.770Z,8.30
2024-05-09T21:08:16.484Z,8.90
2024-05-09T21:10:44.684Z,9.10
2024-05-09T21:13:13.122Z,8.50
2024-05-09T21:15:43.038Z,8.10
2024-05-09T21:18:12.041Z,8.60
2024-05-09T21:20:40.066Z,8.80
2024-05-09T21:23:08.483Z,9.10
2024-05-09T21:25:36.524Z,8.60
2024-05-09T21:28:04.797Z,8.90
2024-05-09T21:30:40.950Z,10.00
2024-05-09T21:33:13.439Z,10.50
2024-05-09T21:35:44.334Z,9.50
2024-05-09T21:38:14.647Z,9.90
2024-05-09T21:40:44.138Z,9.80
2024-05-09T21:43:12.704Z,9.10
2024-05-09T21:45:40.817Z,10.10
2024-05-09T21:48:09.185Z,8.80
2024-05-09T21:50:40.906Z,8.60
2024-05-09T21:53:12.400Z,8.70
2024-05-09T21:55:42.388Z,8.50
2024-05-09T21:58:13.342Z,8.60
2024-05-09T22:00:45.522Z,8.40
2024-05-09T22:03:13.771Z,9.00
2024-05-09T22:05:44.292Z,9.20
2024-05-09T22:08:12.814Z,9.30
2024-05-09T22:10:41.168Z,9.40
2024-05-09T22:13:09.286Z,7.90
2024-05-09T22:15:39.761Z,8.40
2024-05-09T22:18:10.385Z,8.40
2024-05-09T22:20:45.112Z,8.50
2024-05-09T22:23:15.109Z,8.60
2024-05-09T22:25:43.159Z,8.00
2024-05-09T22:28:13.531Z,7.30
2024-05-09T22:30:42.846Z,8.20
2024-05-09T22:33:12.050Z,7.80
2024-05-09T22:35:41.112Z,7.40
2024-05-09T22:38:09.720Z,7.70
2024-05-09T22:40:46.045Z,8.10
2024-05-09T22:43:19.362Z,8.10
2024-05-09T22:45:47.716Z,7.70
2024-05-09T22:48:15.750Z,8.30
2024-05-09T22:50:43.589Z,8.10
2024-05-09T22:53:11.499Z,7.50
2024-05-09T22:55:39.527Z,7.90
2024-05-09T22:58:07.492Z,8.70
2024-05-09T23:00:35.740Z,8.20
2024-05-09T23:03:03.875Z,8.90
2024-05-09T23:05:32.484Z,9.10
2024-05-09T23:08:01.738Z,8.20
2024-05-09T23:10:35.674Z,8.60
2024-05-09T23:13:07.460Z,8.30
2024-05-09T23:15:37.366Z,8.40
2024-05-09T23:18:06.152Z,9.40
2024-05-09T23:20:38.425Z,8.60
2024-05-09T23:23:10.568Z,8.30
2024-05-09T23:25:43.345Z,7.80
2024-05-09T23:28:11.782Z,8.60
2024-05-09T23:30:41.212Z,9.30
2024-05-09T23:33:12.906Z,9.00
2024-05-09T23:35:43.171Z,8.50
2024-05-09T23:38:12.179Z,9.20
2024-05-09T23:40:41.743Z,9.10
2024-05-09T23:43:11.759Z,8.40
2024-05-09T23:45:41.058Z,8.60
2024-05-09T23:48:09.845Z,8.00
2024-05-09T23:50:39.543Z,8.20
2024-05-09T23:53:10.015Z,7.70
2024-05-09T23:55:39.001Z,7.90
2024-05-09T23:58:08.300Z,7.70
